Airfield :
LOGIN :

Register | Disclaimer

   EN    FR    IT 

 










Legend :    VFR   Marginal VFR   IFR   Intensive IFR   Very Intensive IFR
Visi :
Ceiling :
>= 8 km
>= 3000ft
5 to 8 km
1000 to 3000 ft
1500m to 5 km
500 to 1000 ft
800 to 1500m
200 to 500 ft
< 800m
< 200 ft
Symbols :   Thunderstorms  Fog  Heavy snow  Heavy precipitations  Wind > 20 kt
SIGMETs :     Misc.  Thunderstorms  Icing  Turbulence  Mountain Waves  Volcanic Ashes







- Airport Elevation : 46 ft
- IATA code : SNN


EINN - Shannon

CURRENT METAR :
  • 210100Z 34007KT 9999 FEW040 BKN060 08/06 Q1019 NOSIG

EXPIRED METARs :
  • 210030Z 33006KT 9999 SCT040 BKN060 09/06 Q1019 NOSIG
  • 210000Z 32003KT 9999 SCT038 BKN060 09/06 Q1019 NOSIG
  • 202330Z 31006KT 9999 FEW040 BKN060 10/06 Q1019 NOSIG
  • 202300Z 31005KT 9999 FEW040 BKN060 10/06 Q1019 NOSIG
  • 202230Z 30007KT CAVOK 10/06 Q1019 NOSIG
  • 202200Z 30008KT 9999 FEW030 10/06 Q1018 NOSIG

TAF COR TAF EINN
Valid from the 21 at 00:00 until the 22 at 00:00 UTC


202311Z 2100/2124 31006KT 9999 FEW020 SCT030
BECMG 2100/2102 01005KT
BECMG 2104/2106 VRB03KT
PROB30
TEMPO 2104/2106 5000 BR
BECMG 2110/2112 26005KT
BECMG 2113/2115 29007KT
BECMG 2115/2117 31012KT
BECMG 2119/2121 30007KT
No reported NOTAMs for that airfield.



MET'MAP, your aeronautical weather chart ! - Copyright ORBIFLY December 2007 - Disclaimer

ORBIFLY MET'MAP TEAM :

Programming & Development : Alexandra Zaïnal
Concept & Development : Baudouin d'Aumeries
Co-Development & Prog : Marc-Olivier Méhu
Technical & hardware support : Manuel Goepfert

Contact : metmap@orbifly.com




SOURCES & CREDITS :

   NOAA